sensor_id;sensor_type;location;lat;lon;timestamp;P1;durP1;ratioP1;P2;durP2;ratioP2
42092;SDS011;28974;50.316;18.960;2023-05-25T00:01:20;36.90;;;15.77;;
42092;SDS011;28974;50.316;18.960;2023-05-25T00:13:21;29.95;;;15.43;;
42092;SDS011;28974;50.316;18.960;2023-05-25T00:25:21;26.63;;;14.32;;
42092;SDS011;28974;50.316;18.960;2023-05-25T00:37:21;25.08;;;13.98;;
42092;SDS011;28974;50.316;18.960;2023-05-25T00:49:23;24.90;;;12.10;;
42092;SDS011;28974;50.316;18.960;2023-05-25T01:01:24;28.05;;;13.93;;
42092;SDS011;28974;50.316;18.960;2023-05-25T01:13:26;25.10;;;13.98;;
42092;SDS011;28974;50.316;18.960;2023-05-25T01:25:30;24.50;;;13.85;;
42092;SDS011;28974;50.316;18.960;2023-05-25T01:37:34;24.13;;;14.37;;
42092;SDS011;28974;50.316;18.960;2023-05-25T01:49:40;27.75;;;15.55;;
42092;SDS011;28974;50.316;18.960;2023-05-25T02:01:41;31.92;;;17.83;;
42092;SDS011;28974;50.316;18.960;2023-05-25T02:13:42;28.17;;;15.45;;
42092;SDS011;28974;50.316;18.960;2023-05-25T02:25:43;24.95;;;15.27;;
42092;SDS011;28974;50.316;18.960;2023-05-25T02:37:43;29.27;;;14.10;;
42092;SDS011;28974;50.316;18.960;2023-05-25T02:49:44;31.13;;;15.82;;
42092;SDS011;28974;50.316;18.960;2023-05-25T03:01:44;29.73;;;15.60;;
42092;SDS011;28974;50.316;18.960;2023-05-25T03:13:45;30.27;;;15.93;;
42092;SDS011;28974;50.316;18.960;2023-05-25T03:25:46;24.25;;;15.20;;
42092;SDS011;28974;50.316;18.960;2023-05-25T03:37:47;36.33;;;17.92;;
42092;SDS011;28974;50.316;18.960;2023-05-25T03:49:47;28.15;;;16.38;;
42092;SDS011;28974;50.316;18.960;2023-05-25T04:01:47;31.95;;;17.85;;
42092;SDS011;28974;50.316;18.960;2023-05-25T04:13:48;33.55;;;19.55;;
42092;SDS011;28974;50.316;18.960;2023-05-25T04:25:48;30.60;;;17.77;;
42092;SDS011;28974;50.316;18.960;2023-05-25T04:37:57;35.00;;;17.25;;
42092;SDS011;28974;50.316;18.960;2023-05-25T04:50:02;29.60;;;16.42;;
42092;SDS011;28974;50.316;18.960;2023-05-25T05:02:03;23.42;;;13.35;;
42092;SDS011;28974;50.316;18.960;2023-05-25T05:14:04;26.50;;;13.40;;
42092;SDS011;28974;50.316;18.960;2023-05-25T05:26:05;32.55;;;15.65;;
42092;SDS011;28974;50.316;18.960;2023-05-25T05:38:08;34.90;;;16.75;;
42092;SDS011;28974;50.316;18.960;2023-05-25T05:50:09;41.75;;;19.20;;
42092;SDS011;28974;50.316;18.960;2023-05-25T06:02:11;47.10;;;20.13;;
42092;SDS011;28974;50.316;18.960;2023-05-25T06:14:11;34.85;;;17.48;;
42092;SDS011;28974;50.316;18.960;2023-05-25T06:26:12;38.33;;;19.63;;
42092;SDS011;28974;50.316;18.960;2023-05-25T06:38:12;36.67;;;20.80;;
42092;SDS011;28974;50.316;18.960;2023-05-25T06:50:13;36.87;;;21.60;;
42092;SDS011;28974;50.316;18.960;2023-05-25T07:02:13;43.28;;;21.33;;
42092;SDS011;28974;50.316;18.960;2023-05-25T07:14:15;46.95;;;20.30;;
42092;SDS011;28974;50.316;18.960;2023-05-25T07:26:15;37.25;;;21.02;;
42092;SDS011;28974;50.316;18.960;2023-05-25T07:38:16;48.22;;;22.90;;
42092;SDS011;28974;50.316;18.960;2023-05-25T07:50:16;40.35;;;19.88;;
42092;SDS011;28974;50.316;18.960;2023-05-25T08:02:17;42.22;;;23.00;;
42092;SDS011;28974;50.316;18.960;2023-05-25T08:14:17;42.47;;;23.27;;
42092;SDS011;28974;50.316;18.960;2023-05-25T08:26:17;44.03;;;21.58;;
42092;SDS011;28974;50.316;18.960;2023-05-25T08:38:18;43.10;;;22.85;;
42092;SDS011;28974;50.316;18.960;2023-05-25T08:50:18;58.90;;;31.60;;
42092;SDS011;28974;50.316;18.960;2023-05-25T09:02:38;66.40;;;36.97;;
42092;SDS011;28974;50.316;18.960;2023-05-25T09:14:38;62.38;;;29.67;;
42092;SDS011;28974;50.316;18.960;2023-05-25T09:26:44;72.75;;;31.02;;
42092;SDS011;28974;50.316;18.960;2023-05-25T09:38:47;41.10;;;22.45;;
42092;SDS011;28974;50.316;18.960;2023-05-25T09:50:48;56.25;;;29.60;;
42092;SDS011;28974;50.316;18.960;2023-05-25T10:02:50;77.18;;;43.38;;
42092;SDS011;28974;50.316;18.960;2023-05-25T10:14:50;62.95;;;35.72;;
42092;SDS011;28974;50.316;18.960;2023-05-25T10:26:53;57.83;;;30.55;;
42092;SDS011;28974;50.316;18.960;2023-05-25T10:38:55;56.78;;;27.73;;
42092;SDS011;28974;50.316;18.960;2023-05-25T10:50:56;33.90;;;19.67;;
42092;SDS011;28974;50.316;18.960;2023-05-25T11:02:56;32.70;;;19.25;;
42092;SDS011;28974;50.316;18.960;2023-05-25T11:15:10;29.77;;;17.60;;
42092;SDS011;28974;50.316;18.960;2023-05-25T11:27:11;36.17;;;20.88;;
42092;SDS011;28974;50.316;18.960;2023-05-25T11:39:12;36.22;;;19.95;;
42092;SDS011;28974;50.316;18.960;2023-05-25T11:51:12;25.55;;;16.38;;
42092;SDS011;28974;50.316;18.960;2023-05-25T12:03:29;27.30;;;15.95;;
42092;SDS011;28974;50.316;18.960;2023-05-25T12:15:30;25.63;;;14.32;;
42092;SDS011;28974;50.316;18.960;2023-05-25T12:27:30;33.97;;;16.80;;
42092;SDS011;28974;50.316;18.960;2023-05-25T12:39:32;34.65;;;15.32;;
42092;SDS011;28974;50.316;18.960;2023-05-25T12:51:37;26.27;;;16.27;;
42092;SDS011;28974;50.316;18.960;2023-05-25T13:03:38;23.58;;;16.20;;
42092;SDS011;28974;50.316;18.960;2023-05-25T13:15:38;25.55;;;15.80;;
42092;SDS011;28974;50.316;18.960;2023-05-25T13:27:42;26.90;;;16.65;;
42092;SDS011;28974;50.316;18.960;2023-05-25T13:39:43;27.45;;;16.70;;
42092;SDS011;28974;50.316;18.960;2023-05-25T13:51:43;32.58;;;19.17;;
42092;SDS011;28974;50.316;18.960;2023-05-25T14:03:44;31.02;;;18.52;;
42092;SDS011;28974;50.316;18.960;2023-05-25T14:15:44;28.70;;;17.55;;
42092;SDS011;28974;50.316;18.960;2023-05-25T14:27:45;42.67;;;21.52;;
42092;SDS011;28974;50.316;18.960;2023-05-25T14:39:45;52.63;;;33.28;;
42092;SDS011;28974;50.316;18.960;2023-05-25T14:51:46;39.63;;;24.75;;
42092;SDS011;28974;50.316;18.960;2023-05-25T15:03:46;44.15;;;24.17;;
42092;SDS011;28974;50.316;18.960;2023-05-25T15:15:49;36.80;;;20.60;;
42092;SDS011;28974;50.316;18.960;2023-05-25T15:27:53;34.33;;;20.37;;
42092;SDS011;28974;50.316;18.960;2023-05-25T15:39:53;43.47;;;19.27;;
42092;SDS011;28974;50.316;18.960;2023-05-25T15:51:54;44.35;;;29.80;;
42092;SDS011;28974;50.316;18.960;2023-05-25T16:03:54;59.97;;;32.30;;
42092;SDS011;28974;50.316;18.960;2023-05-25T16:15:55;41.45;;;21.88;;
42092;SDS011;28974;50.316;18.960;2023-05-25T16:27:55;35.35;;;21.85;;
42092;SDS011;28974;50.316;18.960;2023-05-25T16:39:55;38.35;;;21.52;;
42092;SDS011;28974;50.316;18.960;2023-05-25T16:51:56;33.85;;;20.13;;
42092;SDS011;28974;50.316;18.960;2023-05-25T17:03:56;39.85;;;21.58;;
42092;SDS011;28974;50.316;18.960;2023-05-25T17:15:56;45.53;;;22.20;;
42092;SDS011;28974;50.316;18.960;2023-05-25T17:27:57;39.45;;;23.35;;
42092;SDS011;28974;50.316;18.960;2023-05-25T17:39:57;40.90;;;23.42;;
42092;SDS011;28974;50.316;18.960;2023-05-25T17:51:58;50.78;;;23.88;;
42092;SDS011;28974;50.316;18.960;2023-05-25T18:03:58;50.40;;;26.48;;
42092;SDS011;28974;50.316;18.960;2023-05-25T18:15:58;55.65;;;26.30;;
42092;SDS011;28974;50.316;18.960;2023-05-25T18:27:59;57.10;;;26.42;;
42092;SDS011;28974;50.316;18.960;2023-05-25T18:39:59;44.22;;;25.95;;
42092;SDS011;28974;50.316;18.960;2023-05-25T18:52:00;45.88;;;25.90;;
42092;SDS011;28974;50.316;18.960;2023-05-25T19:04:00;37.10;;;24.10;;
42092;SDS011;28974;50.316;18.960;2023-05-25T19:16:00;41.25;;;22.92;;
42092;SDS011;28974;50.316;18.960;2023-05-25T19:28:03;46.17;;;25.80;;
42092;SDS011;28974;50.316;18.960;2023-05-25T19:40:03;53.63;;;27.15;;
42092;SDS011;28974;50.316;18.960;2023-05-25T19:52:05;50.85;;;27.15;;
42092;SDS011;28974;50.316;18.960;2023-05-25T20:04:05;54.60;;;29.30;;
42092;SDS011;28974;50.316;18.960;2023-05-25T20:16:06;53.75;;;30.42;;
42092;SDS011;28974;50.316;18.960;2023-05-25T20:28:09;55.33;;;29.98;;
42092;SDS011;28974;50.316;18.960;2023-05-25T20:40:09;56.00;;;32.65;;
42092;SDS011;28974;50.316;18.960;2023-05-25T20:52:10;65.50;;;32.97;;
42092;SDS011;28974;50.316;18.960;2023-05-25T21:04:10;59.47;;;34.50;;
42092;SDS011;28974;50.316;18.960;2023-05-25T21:16:10;60.45;;;32.00;;
42092;SDS011;28974;50.316;18.960;2023-05-25T21:28:11;53.00;;;32.95;;
42092;SDS011;28974;50.316;18.960;2023-05-25T21:40:15;59.33;;;30.25;;
42092;SDS011;28974;50.316;18.960;2023-05-25T21:52:15;59.13;;;30.23;;
42092;SDS011;28974;50.316;18.960;2023-05-25T22:04:16;70.70;;;34.17;;
42092;SDS011;28974;50.316;18.960;2023-05-25T22:16:16;60.72;;;32.10;;
42092;SDS011;28974;50.316;18.960;2023-05-25T22:28:17;59.80;;;33.33;;
42092;SDS011;28974;50.316;18.960;2023-05-25T22:40:17;61.22;;;34.97;;
42092;SDS011;28974;50.316;18.960;2023-05-25T22:52:17;66.55;;;36.67;;
42092;SDS011;28974;50.316;18.960;2023-05-25T23:04:18;63.70;;;38.40;;
42092;SDS011;28974;50.316;18.960;2023-05-25T23:16:18;74.25;;;38.22;;
42092;SDS011;28974;50.316;18.960;2023-05-25T23:28:19;81.75;;;40.50;;
42092;SDS011;28974;50.316;18.960;2023-05-25T23:40:19;72.72;;;41.83;;
42092;SDS011;28974;50.316;18.960;2023-05-25T23:52:19;80.20;;;42.70;;
